createdAt,value
2019-03-19T00:00:06.551Z,99.99
2019-03-19T00:01:06.562Z,99.99
2019-03-19T00:02:06.577Z,99.99
2019-03-19T00:03:06.588Z,99.99
2019-03-19T00:04:06.599Z,99.99
2019-03-19T00:05:06.613Z,99.99
2019-03-19T00:06:06.624Z,99.99
2019-03-19T00:07:06.635Z,99.99
2019-03-19T00:08:06.649Z,99.99
2019-03-19T00:09:06.661Z,99.99
2019-03-19T00:10:06.675Z,99.99
2019-03-19T00:11:06.685Z,99.99
2019-03-19T00:12:06.699Z,99.99
2019-03-19T00:13:06.711Z,99.99
2019-03-19T00:14:06.720Z,99.99
2019-03-19T00:15:06.737Z,99.99
2019-03-19T00:16:06.745Z,99.99
2019-03-19T00:17:06.759Z,99.99
2019-03-19T00:18:06.772Z,99.99
2019-03-19T00:19:06.782Z,99.99
2019-03-19T00:20:06.796Z,99.99
2019-03-19T00:21:06.807Z,99.99
2019-03-19T00:22:06.822Z,99.99
2019-03-19T00:23:06.830Z,99.99
2019-03-19T00:24:06.844Z,99.99
2019-03-19T00:25:06.856Z,99.99
2019-03-19T00:26:06.870Z,99.99
2019-03-19T00:27:06.881Z,99.99
2019-03-19T00:28:06.893Z,99.99
2019-03-19T00:29:06.905Z,99.99
2019-03-19T00:30:06.919Z,99.99
2019-03-19T00:31:06.929Z,99.99
2019-03-19T00:32:06.944Z,99.99
2019-03-19T00:33:06.953Z,99.99
2019-03-19T00:34:06.966Z,99.99
2019-03-19T00:35:06.979Z,99.99
2019-03-19T00:36:06.988Z,99.99
2019-03-19T00:37:07.001Z,99.99
2019-03-19T00:38:07.013Z,99.99
2019-03-19T00:39:07.024Z,99.99
2019-03-19T00:40:07.037Z,99.99
2019-03-19T00:41:07.050Z,99.99
2019-03-19T00:42:07.062Z,99.99
2019-03-19T00:43:07.072Z,99.99
2019-03-19T00:44:07.087Z,99.99
2019-03-19T00:45:07.096Z,99.99
2019-03-19T00:46:07.105Z,99.99
2019-03-19T00:47:07.119Z,99.99
2019-03-19T00:48:07.137Z,99.99
2019-03-19T00:49:07.144Z,99.99
2019-03-19T00:50:07.157Z,99.99
2019-03-19T00:51:07.173Z,99.99
2019-03-19T00:52:07.181Z,99.99
2019-03-19T00:53:07.194Z,99.99
2019-03-19T00:54:07.205Z,99.99
2019-03-19T00:55:07.215Z,99.99
2019-03-19T00:56:07.230Z,99.99
2019-03-19T00:57:07.241Z,99.99
2019-03-19T00:58:07.249Z,99.99
2019-03-19T00:59:07.262Z,99.99
2019-03-19T01:00:07.277Z,99.99
2019-03-19T01:01:07.291Z,99.99
2019-03-19T01:02:07.298Z,99.99
2019-03-19T01:03:07.312Z,99.99
2019-03-19T01:04:07.322Z,99.99
2019-03-19T01:05:07.339Z,99.99
2019-03-19T01:06:07.349Z,99.99
2019-03-19T01:07:07.359Z,99.99
2019-03-19T01:08:07.397Z,99.99
2019-03-19T01:09:07.461Z,99.99
2019-03-19T01:10:07.459Z,99.99
2019-03-19T01:11:07.468Z,99.99
2019-03-19T01:12:07.460Z,99.99
2019-03-19T01:13:07.460Z,99.99
2019-03-19T01:14:07.519Z,99.99
2019-03-19T01:15:07.527Z,99.99
2019-03-19T01:16:07.509Z,99.99
2019-03-19T01:17:07.528Z,99.99
2019-03-19T01:18:07.549Z,99.99
2019-03-19T01:19:07.520Z,99.99
2019-03-19T01:20:07.557Z,99.99
2019-03-19T01:21:07.530Z,99.99
2019-03-19T01:22:07.539Z,99.99
2019-03-19T01:23:07.550Z,99.99
2019-03-19T01:24:07.564Z,99.99
2019-03-19T01:25:07.574Z,99.99
2019-03-19T01:26:07.586Z,99.99
2019-03-19T01:27:07.597Z,99.99
2019-03-19T01:28:07.610Z,99.99
2019-03-19T01:29:07.624Z,99.99
2019-03-19T01:30:07.636Z,99.99
2019-03-19T01:31:07.647Z,99.99
2019-03-19T01:32:07.657Z,99.99
2019-03-19T01:33:07.671Z,99.99
2019-03-19T01:34:07.681Z,99.99
2019-03-19T01:35:07.695Z,99.99
2019-03-19T01:36:07.705Z,99.99
2019-03-19T01:37:07.719Z,99.99
2019-03-19T01:38:07.730Z,99.99
2019-03-19T01:39:07.743Z,99.99
2019-03-19T01:40:07.754Z,99.99
2019-03-19T01:41:07.767Z,99.99
2019-03-19T01:42:07.781Z,99.99
2019-03-19T01:43:07.790Z,99.99
2019-03-19T01:44:07.812Z,99.99
2019-03-19T01:45:07.816Z,99.99
2019-03-19T01:46:07.826Z,99.99
2019-03-19T01:47:07.840Z,99.99
2019-03-19T01:48:07.852Z,99.99
2019-03-19T01:49:07.865Z,99.99
2019-03-19T01:50:07.875Z,99.99
2019-03-19T01:51:07.895Z,99.99
2019-03-19T01:52:07.906Z,99.99
2019-03-19T01:53:07.913Z,99.99
2019-03-19T01:54:07.926Z,99.99
2019-03-19T01:55:07.939Z,99.99
2019-03-19T01:56:07.954Z,99.99
2019-03-19T01:57:07.968Z,99.99
2019-03-19T01:58:07.975Z,99.99
2019-03-19T01:59:07.992Z,99.99
2019-03-19T02:00:08.000Z,99.99
2019-03-19T02:01:08.014Z,99.99
2019-03-19T02:02:08.029Z,99.99
2019-03-19T02:03:08.040Z,99.99
2019-03-19T02:04:08.050Z,99.99
2019-03-19T02:05:08.062Z,99.99
2019-03-19T02:06:08.078Z,99.99
2019-03-19T02:07:08.088Z,99.99
2019-03-19T02:08:08.099Z,99.99
2019-03-19T02:09:08.111Z,99.99
2019-03-19T02:10:08.127Z,99.99
2019-03-19T02:11:08.140Z,99.99
2019-03-19T02:12:08.149Z,99.99
2019-03-19T02:13:08.163Z,99.99
2019-03-19T02:14:08.174Z,99.99
2019-03-19T02:15:08.186Z,99.99
2019-03-19T02:16:08.199Z,99.99
2019-03-19T02:17:08.217Z,99.99
2019-03-19T02:18:08.226Z,99.99
2019-03-19T02:19:08.236Z,99.99
2019-03-19T02:20:08.250Z,99.99
2019-03-19T02:21:08.263Z,99.99
2019-03-19T02:22:08.275Z,99.99
2019-03-19T02:23:08.285Z,99.99
2019-03-19T02:24:08.300Z,99.99
2019-03-19T02:25:08.314Z,99.99
2019-03-19T02:26:15.840Z,99.99
2019-03-19T02:27:08.340Z,99.99
2019-03-19T02:28:08.349Z,99.99
2019-03-19T02:29:10.706Z,99.99
2019-03-19T02:30:08.377Z,99.99
2019-03-19T02:31:08.391Z,99.99
2019-03-19T02:32:08.398Z,99.99
2019-03-19T02:33:08.412Z,99.99
2019-03-19T02:34:08.428Z,99.99
2019-03-19T02:35:08.439Z,99.99
2019-03-19T02:36:08.454Z,99.99
2019-03-19T02:37:08.464Z,99.99
2019-03-19T02:38:08.480Z,99.99
2019-03-19T02:39:08.487Z,99.99
2019-03-19T02:40:08.502Z,99.99
2019-03-19T02:41:08.516Z,99.99
2019-03-19T02:42:08.524Z,99.99
2019-03-19T02:43:08.537Z,99.99
2019-03-19T02:44:08.549Z,99.99
2019-03-19T02:45:08.565Z,99.99
2019-03-19T02:46:08.586Z,99.99
2019-03-19T02:47:08.586Z,99.99
2019-03-19T02:48:08.604Z,99.99
2019-03-19T02:49:08.613Z,99.99
2019-03-19T02:50:08.629Z,99.99
2019-03-19T02:51:08.637Z,99.99
2019-03-19T02:52:08.652Z,99.99
2019-03-19T02:53:08.666Z,99.99
2019-03-19T02:54:08.675Z,99.99
2019-03-19T02:55:08.683Z,99.99
2019-03-19T02:56:08.700Z,99.99
2019-03-19T02:57:08.711Z,99.99
2019-03-19T02:58:08.727Z,99.99
2019-03-19T02:59:08.734Z,99.99
2019-03-19T03:00:08.749Z,99.99
2019-03-19T03:01:08.758Z,99.99
2019-03-19T03:02:08.771Z,99.99
2019-03-19T03:03:08.788Z,99.99
2019-03-19T03:04:08.796Z,99.99
2019-03-19T03:05:08.809Z,99.99
2019-03-19T03:06:08.819Z,99.99
2019-03-19T03:07:08.833Z,99.99
2019-03-19T03:08:08.848Z,99.99
2019-03-19T03:09:08.857Z,99.99
2019-03-19T03:10:08.870Z,99.99
2019-03-19T03:11:08.886Z,99.99
2019-03-19T03:12:08.891Z,99.99
2019-03-19T03:13:08.904Z,99.99
2019-03-19T03:14:08.917Z,99.99
2019-03-19T03:15:08.934Z,99.99
2019-03-19T03:16:08.940Z,99.99
2019-03-19T03:17:08.952Z,99.99
2019-03-19T03:18:08.965Z,99.99
2019-03-19T03:19:08.977Z,99.99
2019-03-19T03:20:09.001Z,99.99
2019-03-19T03:21:09.002Z,99.99
2019-03-19T03:22:09.019Z,99.99
2019-03-19T03:23:09.027Z,99.99
2019-03-19T03:24:09.037Z,99.99
2019-03-19T03:25:09.050Z,99.99
2019-03-19T03:26:09.063Z,99.99
2019-03-19T03:27:09.075Z,99.99
2019-03-19T03:28:09.085Z,99.99
2019-03-19T03:29:09.112Z,99.99
2019-03-19T03:30:09.111Z,99.99
2019-03-19T03:31:09.141Z,99.99
2019-03-19T03:32:09.159Z,99.99
2019-03-19T03:33:09.144Z,99.99
2019-03-19T03:34:09.157Z,99.99
2019-03-19T03:35:09.170Z,99.99
2019-03-19T03:36:09.181Z,99.99
2019-03-19T03:37:09.272Z,99.99
2019-03-19T03:38:09.278Z,99.99
2019-03-19T03:39:09.275Z,99.99
2019-03-19T03:40:09.272Z,99.99
2019-03-19T03:41:09.279Z,99.99
2019-03-19T03:42:09.273Z,99.99
2019-03-19T03:43:09.336Z,99.99
2019-03-19T03:44:09.336Z,99.99
2019-03-19T03:45:09.359Z,99.99
2019-03-19T03:46:09.365Z,99.99
2019-03-19T03:47:09.349Z,99.99
2019-03-19T03:48:09.334Z,99.99
2019-03-19T03:49:09.333Z,99.99
2019-03-19T03:50:09.344Z,99.99
2019-03-19T03:51:09.360Z,99.99
2019-03-19T03:52:09.371Z,99.99
2019-03-19T03:53:09.392Z,99.99
2019-03-19T03:54:09.393Z,99.99
2019-03-19T03:55:09.406Z,99.99
2019-03-19T03:56:09.420Z,99.99
2019-03-19T03:57:09.432Z,99.99
2019-03-19T03:58:09.441Z,99.99
2019-03-19T03:59:09.483Z,99.99
2019-03-19T04:00:09.474Z,99.99
2019-03-19T04:01:09.478Z,99.99
2019-03-19T04:02:09.502Z,99.99
2019-03-19T04:03:09.501Z,99.99
2019-03-19T04:04:09.528Z,99.99
2019-03-19T04:05:09.528Z,99.99
2019-03-19T04:06:09.536Z,99.99
2019-03-19T04:07:09.552Z,99.99
2019-03-19T04:08:09.567Z,99.99
2019-03-19T04:09:09.640Z,99.99
2019-03-19T04:10:09.598Z,99.99
2019-03-19T04:11:09.597Z,99.99
2019-03-19T04:12:09.617Z,99.99
2019-03-19T04:13:09.623Z,99.99
2019-03-19T04:14:09.633Z,99.99
2019-03-19T04:15:09.647Z,99.99
2019-03-19T04:16:09.660Z,99.99
2019-03-19T04:17:09.672Z,99.99
2019-03-19T04:18:09.684Z,99.99
2019-03-19T04:19:09.696Z,99.99
2019-03-19T04:20:09.708Z,99.99
2019-03-19T04:21:09.719Z,99.99
2019-03-19T04:22:09.735Z,99.99
2019-03-19T04:23:09.746Z,99.99
2019-03-19T04:24:09.765Z,99.99
2019-03-19T04:25:09.770Z,99.99
2019-03-19T04:26:09.780Z,99.99
2019-03-19T04:27:15.952Z,99.99
2019-03-19T04:28:09.805Z,99.99
2019-03-19T04:29:09.817Z,99.99
2019-03-19T04:30:09.830Z,99.99
2019-03-19T04:31:09.843Z,99.99
2019-03-19T04:32:09.854Z,99.99
2019-03-19T04:33:09.866Z,99.99
2019-03-19T04:34:09.877Z,99.99
2019-03-19T04:35:09.889Z,99.99
2019-03-19T04:36:09.904Z,99.99
2019-03-19T04:37:09.917Z,99.99
2019-03-19T04:38:09.930Z,99.99
2019-03-19T04:39:09.940Z,99.99
2019-03-19T04:40:09.953Z,99.99
2019-03-19T04:41:09.967Z,99.99
2019-03-19T04:42:09.975Z,99.99
2019-03-19T04:43:09.992Z,99.99
2019-03-19T04:44:10.003Z,99.99
2019-03-19T04:45:10.015Z,99.99
2019-03-19T04:46:10.027Z,99.99
2019-03-19T04:47:10.040Z,99.99
2019-03-19T04:48:10.052Z,99.99
2019-03-19T04:49:10.065Z,99.99
2019-03-19T04:50:10.078Z,99.99
2019-03-19T04:51:10.091Z,99.99
2019-03-19T04:52:10.103Z,99.99
2019-03-19T04:53:10.113Z,99.99
2019-03-19T04:54:10.126Z,99.99
2019-03-19T04:55:10.141Z,99.99
2019-03-19T04:56:10.154Z,99.99
2019-03-19T04:57:10.174Z,99.99
2019-03-19T04:58:10.179Z,99.99
2019-03-19T04:59:10.188Z,99.99
2019-03-19T05:00:10.200Z,99.99
2019-03-19T05:01:10.214Z,99.99
2019-03-19T05:02:10.226Z,99.99
2019-03-19T05:03:10.240Z,99.99
2019-03-19T05:04:10.256Z,99.99
2019-03-19T05:05:10.264Z,99.99
2019-03-19T05:06:10.281Z,99.99
2019-03-19T05:07:10.292Z,99.99
2019-03-19T05:08:10.303Z,99.99
2019-03-19T05:09:10.314Z,99.99
2019-03-19T05:10:10.325Z,99.99
2019-03-19T05:11:10.347Z,99.99
2019-03-19T05:12:10.353Z,99.99
2019-03-19T05:13:10.365Z,99.99
2019-03-19T05:14:10.384Z,99.99
2019-03-19T05:15:10.391Z,99.99
2019-03-19T05:16:10.402Z,99.99
2019-03-19T05:17:10.418Z,99.99
2019-03-19T05:18:10.427Z,99.99
2019-03-19T05:19:10.441Z,99.99
2019-03-19T05:20:10.454Z,99.99
2019-03-19T05:21:10.467Z,99.99
2019-03-19T05:22:10.479Z,99.99
2019-03-19T05:23:10.492Z,99.99
2019-03-19T05:24:10.505Z,99.99
2019-03-19T05:25:10.525Z,99.99
2019-03-19T05:26:10.528Z,99.99
2019-03-19T05:27:10.543Z,99.99
2019-03-19T05:28:10.554Z,99.99
2019-03-19T05:29:10.569Z,99.99
2019-03-19T05:30:10.578Z,99.99
2019-03-19T05:31:10.592Z,99.99
2019-03-19T05:32:10.605Z,99.99
2019-03-19T05:33:10.617Z,99.99
2019-03-19T05:34:10.628Z,99.99
2019-03-19T05:35:10.650Z,99.99
2019-03-19T05:36:10.663Z,99.99
2019-03-19T05:37:10.669Z,99.99
2019-03-19T05:38:10.683Z,99.99
2019-03-19T05:39:10.696Z,99.99
2019-03-19T05:40:10.713Z,99.99
2019-03-19T05:41:10.724Z,99.99
2019-03-19T05:42:10.734Z,99.99
2019-03-19T05:43:10.746Z,99.99
2019-03-19T05:44:10.760Z,99.99
2019-03-19T05:45:10.771Z,99.99
2019-03-19T05:46:10.784Z,99.99
2019-03-19T05:47:10.798Z,99.99
2019-03-19T05:48:10.810Z,99.99
2019-03-19T05:49:10.829Z,99.99
2019-03-19T05:50:10.837Z,99.99
2019-03-19T05:51:10.849Z,99.99
2019-03-19T05:52:10.862Z,99.99
2019-03-19T05:53:10.874Z,99.99
2019-03-19T05:54:10.889Z,99.99
2019-03-19T05:55:10.899Z,99.99
2019-03-19T05:56:10.914Z,99.99
2019-03-19T05:57:10.926Z,99.99
2019-03-19T05:58:10.938Z,99.99
2019-03-19T05:59:10.952Z,99.99
2019-03-19T06:00:10.966Z,99.99
2019-03-19T06:01:10.978Z,99.99
2019-03-19T06:02:10.990Z,99.99
2019-03-19T06:03:11.001Z,99.99
2019-03-19T06:04:11.100Z,99.99
2019-03-19T06:05:11.090Z,99.99
2019-03-19T06:06:11.097Z,99.99
2019-03-19T06:07:11.092Z,99.99
2019-03-19T06:08:11.093Z,99.99
2019-03-19T06:09:11.142Z,99.99
2019-03-19T06:10:11.153Z,99.99
2019-03-19T06:11:11.148Z,99.99
2019-03-19T06:12:11.162Z,99.99
2019-03-19T06:13:11.163Z,99.99
2019-03-19T06:14:11.191Z,99.99
2019-03-19T06:15:11.186Z,99.99
2019-03-19T06:16:11.174Z,99.99
2019-03-19T06:17:11.186Z,99.99
2019-03-19T06:18:11.200Z,99.99
2019-03-19T06:19:11.212Z,99.99
2019-03-19T06:20:11.226Z,99.99
2019-03-19T06:21:11.238Z,99.99
2019-03-19T06:22:11.251Z,99.99
2019-03-19T06:23:11.265Z,99.99
2019-03-19T06:24:11.279Z,99.99
2019-03-19T06:25:11.289Z,99.99
2019-03-19T06:26:11.309Z,99.99
2019-03-19T06:27:11.316Z,99.99
2019-03-19T06:28:11.330Z,99.99
2019-03-19T06:29:11.343Z,99.99
2019-03-19T06:30:11.355Z,99.99
2019-03-19T06:31:11.370Z,99.99
2019-03-19T06:32:11.384Z,99.99
2019-03-19T06:33:11.397Z,99.99
2019-03-19T06:34:11.414Z,99.99
2019-03-19T06:35:11.429Z,99.99
2019-03-19T06:36:11.437Z,99.99
2019-03-19T06:37:11.451Z,99.99
2019-03-19T06:38:11.464Z,99.99
2019-03-19T06:39:11.480Z,99.99
2019-03-19T06:40:11.492Z,99.99
2019-03-19T06:41:11.504Z,99.99
2019-03-19T06:42:11.540Z,99.99
2019-03-19T06:43:11.529Z,99.99
2019-03-19T06:44:11.544Z,99.99
2019-03-19T06:45:11.559Z,99.99
2019-03-19T06:46:11.572Z,99.99
2019-03-19T06:47:11.585Z,99.99
2019-03-19T06:48:11.599Z,99.99
2019-03-19T06:49:11.615Z,99.99
2019-03-19T06:50:11.627Z,99.99
2019-03-19T06:51:11.642Z,99.99
2019-03-19T06:52:11.654Z,99.99
2019-03-19T06:53:11.670Z,99.99
2019-03-19T06:54:11.684Z,99.99
2019-03-19T06:55:11.701Z,99.99
2019-03-19T06:56:11.714Z,99.99
2019-03-19T06:57:11.722Z,99.99
2019-03-19T06:58:11.739Z,99.99
2019-03-19T06:59:11.752Z,99.99
2019-03-19T07:00:11.766Z,99.99
2019-03-19T07:01:11.783Z,99.99
2019-03-19T07:02:11.796Z,99.99
2019-03-19T07:03:11.807Z,99.99
2019-03-19T07:04:11.823Z,99.99
2019-03-19T07:05:11.835Z,99.99
2019-03-19T07:06:11.850Z,99.99
2019-03-19T07:07:11.864Z,99.99
2019-03-19T07:08:11.876Z,99.99
2019-03-19T07:09:11.893Z,99.99
2019-03-19T07:10:11.910Z,99.99
2019-03-19T07:11:11.921Z,99.99
2019-03-19T07:12:11.935Z,99.99
2019-03-19T07:13:11.951Z,99.99
2019-03-19T07:14:11.961Z,99.99
2019-03-19T07:15:11.978Z,99.99
2019-03-19T07:16:11.989Z,99.99
2019-03-19T07:17:12.006Z,99.99
2019-03-19T07:18:12.020Z,99.99
2019-03-19T07:19:12.033Z,99.99
2019-03-19T07:20:12.050Z,99.99
2019-03-19T07:21:12.064Z,99.99
2019-03-19T07:22:12.080Z,99.99
2019-03-19T07:23:12.093Z,99.99
2019-03-19T07:24:12.108Z,99.99
2019-03-19T07:25:12.123Z,99.99
2019-03-19T07:26:12.135Z,99.99
2019-03-19T07:27:12.150Z,99.99
2019-03-19T07:28:21.653Z,99.99
2019-03-19T07:29:12.178Z,99.99
2019-03-19T07:30:12.191Z,99.99
2019-03-19T07:31:12.213Z,99.99
2019-03-19T07:32:12.225Z,99.99
2019-03-19T07:33:12.239Z,99.99
2019-03-19T07:34:12.251Z,99.99
2019-03-19T07:35:12.266Z,99.99
2019-03-19T07:36:12.283Z,99.99
2019-03-19T07:37:12.297Z,99.99
2019-03-19T07:38:12.312Z,99.99
2019-03-19T07:39:12.326Z,99.99
2019-03-19T07:40:12.341Z,99.99
2019-03-19T07:41:12.355Z,99.99
2019-03-19T07:42:12.374Z,99.99
2019-03-19T07:43:12.385Z,99.99
2019-03-19T07:44:12.401Z,99.99
2019-03-19T07:45:12.423Z,99.99
2019-03-19T07:46:12.438Z,99.99
2019-03-19T07:47:12.442Z,99.99
2019-03-19T07:48:12.458Z,99.99
2019-03-19T07:49:12.489Z,99.99
2019-03-19T07:50:12.485Z,99.99
2019-03-19T07:51:12.503Z,99.99
2019-03-19T07:52:12.516Z,99.99
2019-03-19T07:53:12.531Z,99.99
2019-03-19T07:54:12.546Z,99.99
2019-03-19T07:55:12.560Z,99.99
2019-03-19T07:56:12.576Z,99.99
2019-03-19T07:57:12.588Z,99.99
2019-03-19T07:58:12.604Z,99.99
2019-03-19T07:59:12.618Z,99.99
2019-03-19T08:00:12.632Z,99.99
2019-03-19T08:01:12.649Z,99.99
2019-03-19T08:02:12.664Z,99.99
2019-03-19T08:03:16.368Z,99.99
2019-03-19T08:04:12.691Z,99.99
2019-03-19T08:05:12.706Z,99.99
2019-03-19T08:06:12.719Z,99.99
2019-03-19T08:07:12.735Z,99.99
2019-03-19T08:08:12.759Z,99.99
2019-03-19T08:09:12.766Z,99.99
2019-03-19T08:10:12.795Z,99.99
2019-03-19T08:11:13.202Z,99.99
2019-03-19T08:12:12.810Z,99.99
2019-03-19T08:13:12.826Z,99.99
2019-03-19T08:14:12.841Z,99.99
2019-03-19T08:15:12.903Z,99.99
2019-03-19T08:16:12.949Z,99.99
2019-03-19T08:17:12.930Z,99.99
2019-03-19T08:18:12.962Z,99.99
2019-03-19T08:19:12.995Z,99.99
2019-03-19T08:20:12.995Z,99.99
2019-03-19T08:21:12.994Z,99.99
2019-03-19T08:22:12.998Z,99.99
2019-03-19T08:23:12.990Z,99.99
2019-03-19T08:24:13.015Z,99.99
2019-03-19T08:25:13.001Z,99.99
2019-03-19T08:26:13.014Z,99.99
2019-03-19T08:27:13.031Z,99.99
2019-03-19T08:28:13.045Z,99.99
2019-03-19T08:29:13.089Z,99.99
2019-03-19T08:30:13.075Z,99.99
2019-03-19T08:31:13.093Z,99.99
2019-03-19T08:32:13.106Z,99.99
2019-03-19T08:33:13.121Z,99.99
2019-03-19T08:34:13.139Z,99.99
2019-03-19T08:35:13.154Z,99.99
2019-03-19T08:36:13.168Z,99.99
2019-03-19T08:37:15.480Z,99.99
2019-03-19T08:38:13.201Z,99.99
2019-03-19T08:39:13.213Z,99.99
2019-03-19T08:40:13.229Z,99.99
2019-03-19T08:41:13.244Z,99.99
2019-03-19T08:42:13.258Z,99.99
2019-03-19T08:43:13.274Z,99.99
2019-03-19T08:44:13.289Z,99.99
2019-03-19T08:45:13.304Z,99.99
2019-03-19T08:46:13.322Z,99.99
2019-03-19T08:47:13.338Z,99.99
2019-03-19T08:48:13.355Z,99.99
2019-03-19T08:49:13.378Z,99.99
2019-03-19T08:50:13.389Z,99.99
2019-03-19T08:51:13.403Z,99.99
2019-03-19T08:52:13.421Z,99.99
2019-03-19T08:53:13.440Z,99.99
2019-03-19T08:54:13.453Z,99.99
2019-03-19T08:55:13.466Z,99.99
2019-03-19T08:56:13.483Z,99.99
2019-03-19T08:57:13.503Z,99.99
2019-03-19T08:58:13.513Z,99.99
2019-03-19T08:59:13.530Z,99.99
2019-03-19T09:00:13.546Z,99.99
2019-03-19T09:01:13.563Z,99.99
2019-03-19T09:02:13.582Z,99.99
2019-03-19T09:03:13.595Z,99.99
2019-03-19T09:04:13.609Z,99.99
2019-03-19T09:05:13.624Z,99.99
2019-03-19T09:06:13.644Z,99.99
2019-03-19T09:07:13.655Z,99.99
2019-03-19T09:08:13.673Z,99.99
2019-03-19T09:09:13.687Z,99.99
2019-03-19T09:10:13.703Z,99.99
2019-03-19T09:11:13.720Z,99.99
2019-03-19T09:12:13.734Z,99.99
2019-03-19T09:13:13.750Z,99.99
2019-03-19T09:14:13.763Z,99.99
2019-03-19T09:15:13.781Z,99.99
2019-03-19T09:16:13.794Z,99.99
2019-03-19T09:17:13.811Z,99.99
2019-03-19T09:18:15.981Z,99.99
2019-03-19T09:19:13.842Z,99.99
2019-03-19T09:20:13.861Z,99.99
2019-03-19T09:21:13.875Z,99.99
2019-03-19T09:22:15.164Z,99.99
2019-03-19T09:23:13.908Z,99.99
2019-03-19T09:24:13.923Z,99.99
2019-03-19T09:25:13.940Z,99.99
2019-03-19T09:26:13.954Z,99.99
2019-03-19T09:27:13.970Z,99.99
2019-03-19T09:28:13.985Z,99.99
2019-03-19T09:29:17.022Z,99.99
2019-03-19T09:30:14.019Z,99.99
2019-03-19T09:31:14.035Z,99.99
2019-03-19T09:32:14.051Z,99.99
2019-03-19T09:33:14.068Z,99.99
2019-03-19T09:34:14.082Z,99.99
2019-03-19T09:35:14.098Z,99.99
2019-03-19T09:36:14.117Z,99.99
2019-03-19T09:37:14.142Z,99.99
2019-03-19T09:38:14.148Z,99.99
2019-03-19T09:39:14.164Z,99.99
2019-03-19T09:40:14.180Z,99.99
2019-03-19T09:41:14.196Z,99.99
2019-03-19T09:42:14.211Z,99.99
2019-03-19T09:43:14.231Z,99.99
2019-03-19T09:44:14.248Z,99.99
2019-03-19T09:45:14.262Z,99.99
2019-03-19T09:46:14.276Z,99.99
2019-03-19T09:47:14.295Z,99.99
2019-03-19T09:48:14.311Z,99.99
2019-03-19T09:49:14.327Z,99.99
2019-03-19T09:50:14.343Z,99.99
2019-03-19T09:51:14.359Z,99.99
2019-03-19T09:52:14.377Z,99.99
2019-03-19T09:53:14.394Z,99.99
2019-03-19T09:54:14.420Z,99.99
2019-03-19T09:55:14.433Z,99.99
2019-03-19T09:56:14.442Z,99.99
2019-03-19T09:57:14.457Z,99.99
2019-03-19T09:58:14.477Z,99.99
2019-03-19T09:59:14.492Z,99.99
2019-03-19T10:00:14.507Z,99.99
2019-03-19T10:01:14.525Z,99.99
2019-03-19T10:02:14.541Z,99.99
2019-03-19T10:03:14.557Z,99.50
2019-03-19T10:04:14.573Z,99.69
2019-03-19T10:05:14.590Z,99.99
2019-03-19T10:06:14.692Z,99.99
2019-03-19T10:07:14.622Z,99.99
2019-03-19T10:08:14.647Z,99.99
2019-03-19T10:09:14.663Z,99.99
2019-03-19T10:10:14.675Z,99.69
2019-03-19T10:11:14.691Z,99.97
2019-03-19T10:12:14.735Z,99.21
2019-03-19T10:13:15.122Z,98.74
2019-03-19T10:14:14.788Z,97.41
2019-03-19T10:15:14.799Z,96.17
2019-03-19T10:16:14.831Z,95.79
2019-03-19T10:17:14.854Z,97.03
2019-03-19T10:18:14.857Z,98.45
2019-03-19T10:19:14.891Z,98.83
2019-03-19T10:20:17.435Z,99.50
2019-03-19T10:21:14.860Z,99.78
2019-03-19T10:22:15.342Z,99.50
2019-03-19T10:23:14.891Z,98.17
2019-03-19T10:24:14.913Z,97.31
2019-03-19T10:25:14.928Z,97.22
2019-03-19T10:26:14.944Z,97.12
2019-03-19T10:27:14.959Z,97.03
2019-03-19T10:28:14.977Z,95.70
2019-03-19T10:29:14.997Z,94.37
2019-03-19T10:30:15.009Z,94.56
2019-03-19T10:31:15.025Z,94.98
2019-03-19T10:32:15.045Z,95.75
2019-03-19T10:33:16.039Z,96.69
2019-03-19T10:34:15.078Z,97.41
2019-03-19T10:35:15.094Z,96.88
2019-03-19T10:36:15.109Z,96.60
2019-03-19T10:37:15.129Z,97.50
2019-03-19T10:38:15.140Z,96.84
2019-03-19T10:39:15.159Z,97.41
2019-03-19T10:40:15.176Z,97.22
2019-03-19T10:41:15.190Z,98.26
2019-03-19T10:42:15.205Z,98.55
2019-03-19T10:43:15.223Z,99.50
2019-03-19T10:44:15.245Z,98.45
2019-03-19T10:45:15.260Z,98.26
2019-03-19T10:46:15.274Z,98.64
2019-03-19T10:47:15.313Z,97.78
2019-03-19T10:48:15.308Z,98.07
2019-03-19T10:49:15.325Z,97.78
2019-03-19T10:50:15.339Z,97.78
2019-03-19T10:51:15.357Z,98.93
2019-03-19T10:52:15.374Z,98.74
2019-03-19T10:53:15.390Z,98.83
2019-03-19T10:54:15.407Z,98.45
2019-03-19T10:55:15.426Z,97.88
2019-03-19T10:56:15.443Z,97.69
2019-03-19T10:57:15.457Z,96.65
2019-03-19T10:58:15.472Z,97.22
2019-03-19T10:59:15.489Z,97.60
2019-03-19T11:00:15.506Z,98.45
2019-03-19T11:01:15.523Z,97.50
2019-03-19T11:02:15.537Z,96.84
2019-03-19T11:03:15.557Z,97.69
2019-03-19T11:04:15.572Z,97.41
2019-03-19T11:05:15.598Z,97.88
2019-03-19T11:06:15.606Z,98.45
2019-03-19T11:07:15.622Z,98.93
2019-03-19T11:08:15.638Z,98.83
2019-03-19T11:09:15.656Z,97.60
2019-03-19T11:10:15.677Z,96.84
2019-03-19T11:11:15.692Z,97.60
2019-03-19T11:12:15.704Z,98.03
2019-03-19T11:13:15.721Z,97.08
2019-03-19T11:14:15.737Z,97.08
2019-03-19T11:15:15.758Z,97.64
2019-03-19T11:16:15.770Z,96.60
2019-03-19T11:17:15.788Z,96.50
2019-03-19T11:18:15.808Z,96.12
2019-03-19T11:19:15.822Z,96.03
2019-03-19T11:20:15.840Z,96.60
2019-03-19T11:21:15.855Z,96.60
2019-03-19T11:22:15.871Z,97.55
2019-03-19T11:23:15.888Z,97.64
2019-03-19T11:24:15.905Z,96.79
2019-03-19T11:25:15.925Z,96.89
2019-03-19T11:26:15.942Z,97.22
2019-03-19T11:27:15.957Z,97.08
2019-03-19T11:28:15.974Z,98.12
2019-03-19T11:29:15.991Z,98.31
2019-03-19T11:30:16.007Z,99.64
2019-03-19T11:31:16.024Z,99.99
2019-03-19T11:32:16.043Z,99.99
2019-03-19T11:33:16.062Z,99.99
2019-03-19T11:34:16.078Z,99.99
2019-03-19T11:35:16.094Z,99.99
2019-03-19T11:36:16.110Z,99.99
2019-03-19T11:37:16.128Z,99.99
2019-03-19T11:38:16.143Z,99.99
2019-03-19T11:39:16.161Z,99.99
2019-03-19T11:40:16.180Z,99.99
2019-03-19T11:41:16.195Z,99.99
2019-03-19T11:42:16.211Z,99.99
2019-03-19T11:43:16.229Z,99.99
2019-03-19T11:44:16.245Z,99.99
2019-03-19T11:45:16.267Z,99.99
2019-03-19T11:46:16.281Z,99.99
2019-03-19T11:47:16.296Z,99.99
2019-03-19T11:48:16.314Z,99.99
2019-03-19T11:49:16.332Z,99.99
2019-03-19T11:50:16.350Z,99.99
2019-03-19T11:51:16.370Z,99.99
2019-03-19T11:52:16.383Z,99.99
2019-03-19T11:53:16.406Z,99.99
2019-03-19T11:54:16.416Z,99.99
2019-03-19T11:55:16.434Z,99.99
2019-03-19T11:56:16.453Z,99.99
2019-03-19T11:57:16.474Z,99.99
2019-03-19T11:58:16.488Z,99.99
2019-03-19T11:59:16.508Z,99.99
2019-03-19T12:00:16.523Z,99.60
2019-03-19T12:01:16.608Z,99.50
2019-03-19T12:02:25.596Z,99.22
2019-03-19T12:03:16.781Z,98.83
2019-03-19T12:04:16.659Z,98.93
2019-03-19T12:05:16.658Z,97.98
2019-03-19T12:06:16.661Z,98.36
2019-03-19T12:07:16.714Z,97.41
2019-03-19T12:08:16.718Z,96.36
2019-03-19T12:09:16.733Z,95.32
2019-03-19T12:10:16.734Z,95.03
2019-03-19T12:11:16.726Z,93.32
2019-03-19T12:12:16.743Z,92.75
2019-03-19T12:13:16.759Z,93.04
2019-03-19T12:14:16.777Z,93.98
2019-03-19T12:15:16.796Z,93.70
2019-03-19T12:16:16.814Z,92.94
2019-03-19T12:17:16.831Z,93.13
2019-03-19T12:18:16.851Z,93.89
2019-03-19T12:19:16.868Z,93.41
2019-03-19T12:20:16.885Z,92.18
2019-03-19T12:21:16.907Z,92.65
2019-03-19T12:22:16.918Z,93.23
2019-03-19T12:23:16.938Z,93.23
2019-03-19T12:24:16.954Z,94.27
2019-03-19T12:25:16.976Z,94.93
2019-03-19T12:26:16.995Z,95.03
2019-03-19T12:27:17.011Z,94.51
2019-03-19T12:28:17.028Z,94.22
2019-03-19T12:29:17.048Z,94.03
2019-03-19T12:30:22.036Z,92.41
2019-03-19T12:31:17.083Z,91.46
2019-03-19T12:32:17.103Z,91.37
2019-03-19T12:33:17.119Z,91.37
2019-03-19T12:34:17.138Z,92.22
2019-03-19T12:35:17.156Z,92.79
2019-03-19T12:36:17.177Z,92.84
2019-03-19T12:37:17.196Z,92.51
2019-03-19T12:38:17.213Z,92.41
2019-03-19T12:39:17.233Z,91.41
2019-03-19T12:40:17.254Z,91.65
2019-03-19T12:41:17.273Z,91.65
2019-03-19T12:42:17.286Z,91.65
2019-03-19T12:43:17.306Z,92.32
2019-03-19T12:44:17.327Z,91.84
2019-03-19T12:45:17.343Z,91.27
2019-03-19T12:46:17.359Z,91.37
2019-03-19T12:47:17.378Z,92.03
2019-03-19T12:48:17.399Z,92.32
2019-03-19T12:49:17.418Z,92.03
2019-03-19T12:50:17.431Z,90.32
2019-03-19T12:51:17.451Z,91.08
2019-03-19T12:52:17.469Z,88.89